Latest Weather Observations for Hay Airport

IDN60801

Issued at 5:33 pm EST Friday 29 July 2016 (issued every 30 minutes, with the page automatically refreshed every 10 minutes)

About weather observations | Map of weather stations | Latest weather observations for NSW | Other Formats
Station Details ID: 075019 Name: HAY AIRPORT AWS Lat: -34.54 Lon: 144.83 Height: 92.0 m
Data from the previous 72 hours. | See also: Recent months at Hay Airport
Date/Time
EST
Temp
°C
App
Temp
°C
Dew
Point
°C
Rel
Hum
%
Delta-T
°C
Wind Press
QNH
hPa
Press
MSL
hPa
Rain since
9am
mm
Dir  Spd
km/h
Gust
km/h
Spd
kts
Gust
kts
29/05:30pm 9.6 9.0 7.4 86 1.0 CALM 0 0 0 0 1023.4 1023.5 0.0
29/05:00pm 11.1 9.2 7.4 78 1.8 WSW 7 11 4 6 1023.8 1023.9 0.0
29/04:30pm 11.8 9.4 7.1 73 2.3 W 9 11 5 6 1023.6 1023.7 0.0
29/04:00pm 11.6 8.1 7.3 75 2.1 W 15 22 8 12 1023.8 1023.9 0.0
29/03:30pm 11.6 7.9 6.5 71 2.4 WNW 15 20 8 11 1023.8 1023.9 0.0
29/03:00pm 11.8 8.3 7.3 74 2.2 WNW 15 17 8 9 1024.0 1024.1 0.0
29/02:30pm 11.8 7.8 6.7 71 2.4 WNW 17 20 9 11 1023.7 1023.8 0.0
29/02:00pm 11.7 7.4 7.2 74 2.2 WNW 19 22 10 12 1024.0 1024.1 0.0
29/01:30pm 11.9 7.9 6.6 70 2.5 WNW 17 22 9 12 1024.4 1024.5 0.0
29/01:00pm 11.9 7.6 6.8 71 2.4 WNW 19 26 10 14 1024.9 1025.0 0.0
29/12:30pm 12.1 7.8 7.0 71 2.5 NW 19 26 10 14 1025.1 1025.2 0.0
29/12:00pm 11.9 8.1 6.0 67 2.8 WNW 15 20 8 11 1025.6 1025.7 0.0
29/11:30am 11.5 7.0 6.2 70 2.5 WNW 19 24 10 13 1026.2 1026.4 0.0
29/11:00am 11.7 7.3 6.4 70 2.5 WNW 19 22 10 12 1026.2 1026.4 0.0
29/10:30am 11.9 8.2 6.4 69 2.6 WNW 15 20 8 11 1026.5 1026.7 0.0
29/10:00am 11.4 8.2 6.9 74 2.1 NW 13 17 7 9 1026.4 1026.6 0.0
29/09:30am 10.5 8.1 7.2 80 1.6 NW 9 11 5 6 1026.7 1026.9 0.0
29/09:00am 9.9 7.5 7.0 82 1.4 WNW 9 11 5 6 1026.7 1026.9 0.0
29/08:30am 9.2 7.2 7.2 87 0.9 NW 7 9 4 5 1026.7 1026.9 0.0
29/08:00am 8.6 6.1 6.6 87 0.9 NW 9 11 5 6 1026.6 1026.8 0.0
29/07:30am 8.5 5.9 6.3 86 1.0 NNW 9 9 5 5 1026.3 1026.5 0.0
29/07:00am 8.8 6.2 6.1 83 1.2 NNW 9 11 5 6 1026.3 1026.5 0.0
29/06:30am 8.6 6.7 6.7 88 0.9 NW 6 9 3 5 1026.2 1026.4 0.0
29/06:00am 8.4 7.7 6.9 90 0.7 CALM 0 6 0 3 1026.2 1026.4 0.0
29/05:30am 8.4 6.0 7.0 91 0.7 NNW 9 9 5 5 1026.1 1026.3 0.0
29/05:00am 8.7 6.3 7.0 89 0.8 NW 9 11 5 6 1026.0 1026.2 0.0
29/04:30am 9.1 6.3 7.1 87 0.9 WNW 11 13 6 7 1026.0 1026.2 0.0
29/04:00am 9.2 6.5 7.2 87 0.9 WNW 11 15 6 8 1026.0 1026.2 0.0
29/03:30am 9.2 6.9 7.3 88 0.9 WNW 9 11 5 6 1025.8 1026.0 0.0
29/03:00am 9.1 6.8 7.5 90 0.8 WNW 9 13 5 7 1025.9 1026.1 0.0
29/02:30am 9.4 7.1 7.5 88 0.9 NW 9 9 5 5 1025.9 1026.1 0.0
29/02:00am 9.5 7.7 7.8 89 0.8 NW 7 9 4 5 1026.0 1026.2 0.0
29/01:30am 9.6 7.7 7.7 88 0.9 WNW 7 11 4 6 1026.1 1026.3 0.0
29/01:00am 9.8 7.1 7.4 85 1.1 W 11 15 6 8 1026.4 1026.6 0.0
29/12:30am 9.5 7.7 8.1 91 0.7 W 7 11 4 6 1026.5 1026.7 0.0
29/12:00am 9.7 7.5 7.8 88 0.9 W 9 11 5 6 1026.6 1026.8 0.0
 
Date/Time
EST
Temp
°C
App
Temp
°C
Dew
Point
°C
Rel
Hum
%
Delta-T
°C
Wind Press
QNH
hPa
Press
MSL
hPa
Rain since
9am
mm
Dir  Spd
km/h
Gust
km/h
Spd
kts
Gust
kts
28/11:30pm 10.0 7.0 7.8 86 1.1 WNW 13 17 7 9 1026.7 1026.9 0.0
28/11:00pm 10.0 7.4 7.6 85 1.1 WNW 11 13 6 7 1026.8 1027.0 0.0
28/10:30pm 9.6 7.7 7.7 88 0.9 WNW 7 9 4 5 1026.9 1027.1 0.0
28/10:00pm 9.9 7.7 7.8 87 1.0 NW 9 11 5 6 1027.1 1027.3 0.0
28/09:30pm 10.6 7.9 7.3 80 1.6 WNW 11 20 6 11 1027.2 1027.4 0.0
28/09:00pm 10.0 7.8 7.8 86 1.1 NW 9 13 5 7 1027.4 1027.6 0.0
28/08:30pm 9.8 7.2 7.7 87 1.0 NW 11 13 6 7 1027.5 1027.7 0.0
28/08:00pm 9.5 6.9 7.6 88 0.9 NW 11 15 6 8 1027.4 1027.6 0.0
28/07:30pm 10.3 7.4 8.1 86 1.1 NNW 13 17 7 9 1027.4 1027.6 0.0
28/07:00pm 9.8 7.2 7.6 86 1.0 NNW 11 15 6 8 1027.4 1027.6 0.0
28/06:30pm 9.9 6.9 7.8 87 1.0 NW 13 17 7 9 1027.3 1027.5 0.0
28/06:00pm 10.0 7.4 7.9 87 1.0 NW 11 17 6 9 1026.9 1027.1 0.0
28/05:30pm 10.4 7.0 7.8 84 1.3 NW 15 19 8 10 1027.0 1027.2 0.0
28/05:00pm 10.7 7.0 7.9 83 1.4 NW 17 20 9 11 1026.9 1027.1 0.0
28/04:30pm 11.0 6.9 7.9 81 1.5 WNW 19 22 10 12 1027.0 1027.2 0.0
28/04:00pm 11.1 7.4 7.8 80 1.6 WNW 17 24 9 13 1027.1 1027.3 0.0
28/03:30pm 11.3 7.9 7.8 79 1.7 WNW 15 22 8 12 1027.2 1027.4 0.0
28/03:00pm 11.3 7.0 8.0 80 1.6 W 20 30 11 16 1027.1 1027.3 0.0
28/02:30pm 11.0 6.8 8.2 83 1.4 W 20 28 11 15 1027.1 1027.3 0.0
28/02:00pm 11.8 8.2 8.5 80 1.6 W 17 26 9 14 1027.2 1027.4 0.0
28/01:30pm 11.5 7.9 8.4 81 1.5 WNW 17 22 9 12 1027.6 1027.8 0.0
28/01:00pm 11.2 7.9 7.9 80 1.6 WNW 15 20 8 11 1028.0 1028.2 0.0
28/12:30pm 11.5 7.8 8.0 79 1.7 W 17 26 9 14 1028.3 1028.5 0.0
28/12:00pm 11.2 7.4 7.5 78 1.8 WSW 17 20 9 11 1028.8 1029.0 0.0
28/11:30am 11.1 6.9 7.4 78 1.8 W 19 24 10 13 1029.0 1029.2 0.0
28/11:00am 11.2 7.9 7.9 80 1.6 W 15 20 8 11 1029.1 1029.3 0.0
28/10:30am 10.9 8.1 8.5 85 1.2 W 13 19 7 10 1029.4 1029.6 0.0
28/10:00am 10.2 7.5 7.4 83 1.3 W 11 15 6 8 1029.0 1029.2 0.0
28/09:30am 9.8 7.5 7.4 85 1.1 W 9 15 5 8 1028.9 1029.1 0.0
28/09:00am 9.0 6.7 7.5 90 0.7 W 9 11 5 6 1028.9 1029.1 0.2
28/08:30am 8.3 5.9 7.1 92 0.6 WNW 9 11 5 6 1028.6 1028.8 0.2
28/08:00am 7.1 4.7 6.8 98 0.1 WNW 9 13 5 7 1028.4 1028.6 0.2
28/07:30am 6.7 4.2 6.6 99 0.0 W 9 13 5 7 1028.2 1028.4 0.2
28/07:00am 7.1 4.7 6.8 98 0.1 W 9 11 5 6 1027.8 1028.0 0.2
28/06:30am 7.6 5.2 7.2 97 0.2 W 9 13 5 7 1027.5 1027.7 0.2
28/06:00am 7.7 4.9 7.1 96 0.3 WSW 11 15 6 8 1027.1 1027.3 0.2
28/05:30am 7.9 5.1 7.0 94 0.4 WSW 11 13 6 7 1027.0 1027.2 0.2
28/05:00am 7.8 4.9 6.7 93 0.5 W 11 15 6 8 1026.7 1026.9 0.2
28/04:30am 7.3 5.2 6.7 96 0.3 WSW 7 11 4 6 1026.4 1026.6 0.2
28/04:00am 6.7 4.2 6.4 98 0.1 WSW 9 15 5 8 1026.4 1026.6 0.2
28/03:30am 6.3 3.7 5.9 97 0.2 WSW 9 11 5 6 1026.2 1026.4 0.2
28/03:00am 6.6 3.1 5.6 93 0.4 W 13 15 7 8 1026.1 1026.3 0.2
28/02:30am 7.0 4.8 6.1 94 0.4 WNW 7 9 4 5 1026.2 1026.4 0.2
28/02:00am 7.5 5.0 6.4 93 0.5 W 9 13 5 7 1026.2 1026.4 0.2
28/01:30am 7.5 5.0 6.4 93 0.5 WSW 9 13 5 7 1026.2 1026.4 0.2
28/01:00am 7.0 4.4 6.3 95 0.3 WSW 9 13 5 7 1026.2 1026.4 0.2
28/12:30am 6.9 3.9 5.8 93 0.5 W 11 15 6 8 1026.2 1026.4 0.2
28/12:00am 6.2 3.5 5.8 97 0.2 W 9 13 5 7 1026.3 1026.5 0.2
 
Date/Time
EST
Temp
°C
App
Temp
°C
Dew
Point
°C
Rel
Hum
%
Delta-T
°C
Wind Press
QNH
hPa
Press
MSL
hPa
Rain since
9am
mm
Dir  Spd
km/h
Gust
km/h
Spd
kts
Gust
kts
27/11:30pm 5.6 2.0 5.2 97 0.2 W 13 17 7 9 1026.1 1026.3 0.2
27/11:00pm 5.7 2.1 5.0 95 0.3 W 13 17 7 9 1026.1 1026.3 0.2
27/10:30pm 5.9 2.3 5.2 95 0.3 W 13 17 7 9 1025.9 1026.1 0.2
27/10:00pm 6.2 2.6 5.2 93 0.4 WSW 13 15 7 8 1025.7 1025.8 0.2
27/09:30pm 7.8 4.4 5.9 88 0.9 W 13 17 7 9 1025.3 1025.4 0.2
27/09:00pm 9.3 5.7 6.9 85 1.1 W 15 20 8 11 1025.0 1025.1 0.2
27/08:30pm 9.3 5.0 6.9 85 1.1 WSW 19 24 10 13 1024.9 1025.0 0.2
27/08:00pm 9.2 5.5 6.5 83 1.3 WSW 15 19 8 10 1024.7 1024.8 0.2
27/07:30pm 9.5 5.6 7.3 86 1.0 WSW 17 20 9 11 1024.5 1024.6 0.2
27/07:00pm 9.7 5.2 7.0 83 1.3 WSW 20 32 11 17 1024.2 1024.3 0.2
27/06:30pm 9.9 5.0 7.0 82 1.4 WSW 22 26 12 14 1023.8 1023.9 0.2
27/06:00pm 9.9 5.5 7.5 85 1.1 WSW 20 26 11 14 1023.2 1023.3 0.2
27/05:30pm 9.8 5.0 7.2 84 1.2 W 22 30 12 16 1022.4 1022.6 0.2
27/05:00pm 10.1 5.0 7.5 84 1.2 W 24 32 13 17 1021.9 1022.1 0.2
27/04:30pm 11.0 5.9 9.1 88 1.0 W 26 35 14 19 1021.5 1021.7 0.2
27/04:00pm 11.2 4.8 8.6 84 1.3 W 32 43 17 23 1020.9 1021.1 0.2
27/03:30pm 10.9 5.9 9.7 92 0.6 W 26 33 14 18 1020.3 1020.5 0.2
27/03:00pm 10.9 5.8 10.7 99 0.1 WSW 28 43 15 23 1019.8 1020.0 0.2
27/02:30pm 11.4 7.2 9.7 89 0.9 W 22 32 12 17 1019.3 1019.5 0.0
27/02:00pm 12.1 6.5 8.9 81 1.6 WSW 28 35 15 19 1019.1 1019.3 0.0
27/01:30pm 12.1 7.0 9.1 82 1.5 W 26 35 14 19 1018.7 1018.9 0.0
27/01:00pm 11.3 6.5 8.9 85 1.2 WSW 24 32 13 17 1019.0 1019.2 0.0
27/12:30pm 11.3 5.7 8.9 85 1.2 WSW 28 37 15 20 1019.0 1019.2 0.0
27/12:00pm 11.2 6.2 9.6 90 0.8 WSW 26 33 14 18 1019.0 1019.2 0.0
27/11:30am 10.5 4.2 9.1 91 0.7 W 32 41 17 22 1019.0 1019.2 0.0
27/11:00am 10.3 4.9 9.4 94 0.4 W 28 37 15 20 1018.5 1018.7 0.0
27/10:30am 9.7 4.1 8.9 95 0.4 W 28 35 15 19 1018.2 1018.4 0.0
27/10:00am 9.5 3.6 8.9 96 0.3 W 30 39 16 21 1017.8 1018.0 0.0
27/09:30am 9.7 3.7 8.8 94 0.4 W 30 39 16 21 1017.2 1017.4 0.0
27/09:00am 9.0 3.7 8.4 96 0.3 WNW 26 32 14 17 1016.6 1016.7 1.6
27/08:30am 8.3 3.6 7.9 97 0.2 WNW 22 30 12 16 1016.1 1016.2 1.6
27/08:00am 7.5 2.7 7.4 99 0.0 WNW 22 28 12 15 1015.6 1015.7 1.6
27/07:30am 7.4 2.6 7.3 99 0.0 WNW 22 32 12 17 1015.0 1015.1 1.6
27/07:00am 7.6 2.5 7.5 99 0.0 WNW 24 32 13 17 1014.3 1014.4 1.6
27/06:30am 7.8 1.9 7.7 99 0.0 WNW 28 35 15 19 1013.7 1013.8 1.6
27/06:00am 8.1 1.9 8.0 99 0.0 WNW 30 39 16 21 1013.0 1013.1 1.6
27/05:30am 8.1 2.3 8.0 99 0.0 WNW 28 39 15 21 1012.4 1012.5 1.6
27/05:00am 8.0 2.6 7.9 99 0.0 WNW 26 35 14 19 1011.9 1012.0 1.6
27/04:30am 8.2 2.1 8.1 99 0.0 NW 30 37 16 20 1011.6 1011.7 1.6
27/04:00am 8.2 2.4 8.1 99 0.0 NW 28 33 15 18 1011.3 1011.4 1.6
27/03:30am 8.3 2.9 8.2 99 0.0 NW 26 35 14 19 1011.0 1011.2 1.6
27/03:00am 8.5 3.1 8.2 98 0.1 NW 26 35 14 19 1010.9 1011.1 1.6
27/02:30am 8.8 3.0 8.0 95 0.4 WNW 28 37 15 20 1010.8 1011.0 1.6
27/02:00am 9.1 2.1 8.3 95 0.4 NW 35 46 19 25 1010.7 1010.9 1.6
27/01:30am 9.4 2.4 8.6 95 0.4 NW 35 50 19 27 1010.6 1010.8 1.2
27/01:27am 9.5 2.9 8.4 93 0.5 NW 33 50 18 27 1010.5 1010.7 1.0
27/01:00am 8.9 3.5 8.1 95 0.4 NNW 26 32 14 17 1010.6 1010.8 0.8
27/12:30am 8.7 3.3 7.8 94 0.4 NNW 26 32 14 17 1010.7 1010.9 0.8
27/12:00am 8.6 3.1 7.7 94 0.4 N 26 35 14 19 1010.5 1010.7 0.4
 
Date/Time
EST
Temp
°C
App
Temp
°C
Dew
Point
°C
Rel
Hum
%
Delta-T
°C
Wind Press
QNH
hPa
Press
MSL
hPa
Rain since
9am
mm
Dir  Spd
km/h
Gust
km/h
Spd
kts
Gust
kts
26/11:30pm 8.8 3.3 7.7 93 0.5 N 26 35 14 19 1010.5 1010.7 0.2
26/11:00pm 8.5 3.4 7.6 94 0.4 N 24 32 13 17 1011.0 1011.2 0.2
26/10:30pm 8.5 3.3 7.4 93 0.5 N 24 32 13 17 1011.5 1011.6 0.2
26/10:00pm 8.1 3.8 7.0 93 0.5 N 19 26 10 14 1011.9 1012.0 0.2
26/09:30pm 7.6 3.6 6.5 93 0.5 N 17 20 9 11 1012.4 1012.5 0.2
26/09:00pm 7.5 3.4 6.1 91 0.6 N 17 20 9 11 1012.8 1012.9 0.2
26/08:30pm 7.4 4.0 5.7 89 0.8 N 13 19 7 10 1012.7 1012.8 0.2
26/08:00pm 9.5 5.5 6.8 83 1.3 N 17 22 9 12 1013.5 1013.6 0.2
26/07:30pm 9.8 6.0 6.0 77 1.8 N 15 20 8 11 1013.5 1013.6 0.2
26/07:00pm 9.7 5.2 5.9 77 1.8 NNW 19 22 10 12 1013.5 1013.6 0.2
26/06:30pm 9.9 6.2 6.1 77 1.8 NNW 15 20 8 11 1013.6 1013.7 0.2
26/06:00pm 10.2 6.5 6.2 76 1.9 NNW 15 19 8 10 1013.8 1013.9 0.2

Other Formats:

Comma delimited format used in spreadsheet applications
http://www.bom.gov.au/fwo/IDN60801/IDN60801.94702.axf

JavaScript Object Notation format (JSON) in row-major order
http://www.bom.gov.au/fwo/IDN60801/IDN60801.94702.json